createdAt,value
2022-11-29T00:01:41.910Z,7.27
2022-11-29T00:04:10.863Z,7.23
2022-11-29T00:06:39.190Z,7.21
2022-11-29T00:09:11.541Z,7.24
2022-11-29T00:11:59.339Z,7.18
2022-11-29T00:14:28.646Z,7.20
2022-11-29T00:17:01.285Z,7.24
2022-11-29T00:19:31.383Z,7.27
2022-11-29T00:22:00.486Z,7.25
2022-11-29T00:24:31.876Z,7.22
2022-11-29T00:27:01.357Z,7.21
2022-11-29T00:29:30.665Z,7.22
2022-11-29T00:31:59.204Z,7.22
2022-11-29T00:34:27.782Z,7.24
2022-11-29T00:36:56.105Z,7.27
2022-11-29T00:39:25.188Z,7.27
2022-11-29T00:41:53.644Z,7.27
2022-11-29T00:44:21.891Z,7.24
2022-11-29T00:46:50.358Z,7.25
2022-11-29T00:49:18.946Z,7.22
2022-11-29T00:51:47.962Z,7.25
2022-11-29T00:54:18.820Z,7.25
2022-11-29T00:56:47.884Z,7.20
2022-11-29T00:59:16.150Z,7.22
2022-11-29T01:01:44.915Z,7.17
2022-11-29T01:04:13.326Z,7.22
2022-11-29T01:06:42.548Z,7.17
2022-11-29T01:09:10.790Z,7.18
2022-11-29T01:11:39.016Z,7.16
2022-11-29T01:14:07.341Z,7.09
2022-11-29T01:16:35.904Z,7.19
2022-11-29T01:19:06.699Z,7.22
2022-11-29T01:21:35.141Z,7.20
2022-11-29T01:24:04.053Z,7.20
2022-11-29T01:26:32.648Z,7.22
2022-11-29T01:29:01.155Z,7.20
2022-11-29T01:31:31.361Z,7.18
2022-11-29T01:34:01.849Z,7.16
2022-11-29T01:36:30.738Z,7.17
2022-11-29T01:39:01.302Z,7.16
2022-11-29T01:41:32.584Z,7.20
2022-11-29T01:44:04.469Z,7.23
2022-11-29T01:46:35.068Z,7.13
2022-11-29T01:49:09.216Z,7.22
2022-11-29T01:51:41.551Z,7.14
2022-11-29T01:54:12.174Z,7.13
2022-11-29T01:56:41.421Z,7.18
2022-11-29T01:59:13.937Z,7.15
2022-11-29T02:01:42.339Z,7.21
2022-11-29T02:04:11.266Z,7.17
2022-11-29T02:06:41.041Z,7.03
2022-11-29T02:09:19.277Z,7.10
2022-11-29T02:12:03.321Z,7.15
2022-11-29T02:14:52.260Z,7.13
2022-11-29T02:17:32.767Z,7.16
2022-11-29T02:20:31.671Z,6.97
2022-11-29T02:23:14.269Z,7.13
2022-11-29T02:26:03.389Z,7.11
2022-11-29T02:29:00.147Z,7.13
2022-11-29T02:31:58.750Z,7.14
2022-11-29T02:34:39.979Z,7.19
2022-11-29T02:37:24.684Z,7.13
2022-11-29T02:40:10.592Z,7.14
2022-11-29T02:43:06.969Z,7.15
2022-11-29T02:45:48.290Z,7.13
2022-11-29T02:48:33.930Z,7.09
2022-11-29T02:51:09.559Z,7.10
2022-11-29T02:53:43.838Z,7.14
2022-11-29T02:56:21.720Z,7.17
2022-11-29T02:58:55.590Z,7.13
2022-11-29T03:01:29.416Z,7.09
2022-11-29T03:04:20.159Z,7.09
2022-11-29T03:06:56.526Z,7.03
2022-11-29T03:09:35.054Z,7.13
2022-11-29T03:12:16.016Z,7.08
2022-11-29T03:14:55.302Z,7.11
2022-11-29T03:17:32.420Z,7.03
2022-11-29T03:20:11.138Z,7.12
2022-11-29T03:22:47.842Z,7.07
2022-11-29T03:25:22.405Z,7.05
2022-11-29T03:27:54.668Z,6.99
2022-11-29T03:30:23.411Z,7.03
2022-11-29T03:33:02.797Z,6.96
2022-11-29T03:35:37.250Z,6.97
2022-11-29T03:38:19.806Z,6.98
2022-11-29T03:40:54.860Z,6.97
2022-11-29T03:43:30.260Z,6.80
2022-11-29T03:46:04.167Z,6.94
2022-11-29T03:48:37.329Z,6.97
2022-11-29T03:51:12.878Z,6.93
2022-11-29T03:53:47.786Z,6.95
2022-11-29T03:56:32.639Z,7.00
2022-11-29T03:59:09.537Z,7.01
2022-11-29T04:02:17.826Z,6.95
2022-11-29T04:05:11.238Z,6.99
2022-11-29T04:07:52.585Z,6.97
2022-11-29T04:10:33.515Z,6.99
2022-11-29T04:13:20.622Z,6.91
2022-11-29T04:16:17.817Z,6.83
2022-11-29T04:19:11.458Z,6.80
2022-11-29T04:22:06.850Z,6.80
2022-11-29T04:24:52.569Z,6.82
2022-11-29T04:27:34.075Z,6.84
2022-11-29T04:30:09.484Z,6.76
2022-11-29T04:33:25.344Z,6.74
2022-11-29T04:36:11.073Z,6.75
2022-11-29T04:38:55.264Z,6.76
2022-11-29T04:41:52.018Z,6.66
2022-11-29T04:44:40.948Z,6.77
2022-11-29T04:47:40.001Z,6.73
2022-11-29T04:50:25.847Z,6.80
2022-11-29T04:53:23.925Z,6.75
2022-11-29T04:55:58.863Z,6.83
2022-11-29T04:58:36.315Z,6.84
2022-11-29T05:01:13.326Z,6.85
2022-11-29T05:03:53.838Z,6.84
2022-11-29T05:06:32.419Z,6.82
2022-11-29T05:09:10.686Z,6.86
2022-11-29T05:11:58.336Z,6.88
2022-11-29T05:14:35.698Z,6.88
2022-11-29T05:17:23.363Z,6.89
2022-11-29T05:20:02.885Z,6.88
2022-11-29T05:22:39.169Z,6.82
2022-11-29T05:25:31.682Z,6.83
2022-11-29T05:28:10.343Z,6.68
2022-11-29T05:31:06.832Z,6.79
2022-11-29T05:33:53.575Z,6.76
2022-11-29T05:36:29.012Z,6.78
2022-11-29T05:39:11.570Z,6.79
2022-11-29T05:42:06.132Z,6.81
2022-11-29T05:44:43.906Z,6.82
2022-11-29T05:47:21.306Z,6.89
2022-11-29T05:50:03.077Z,6.88
2022-11-29T05:52:43.492Z,6.87
2022-11-29T05:55:24.669Z,6.82
2022-11-29T05:57:58.596Z,6.82
2022-11-29T06:00:32.271Z,6.81
2022-11-29T06:03:08.977Z,6.83
2022-11-29T06:05:46.185Z,6.85
2022-11-29T06:08:24.194Z,6.76
2022-11-29T06:11:01.205Z,6.84
2022-11-29T06:13:45.222Z,6.83
2022-11-29T06:16:39.835Z,6.83
2022-11-29T06:19:36.814Z,6.85
2022-11-29T06:22:21.277Z,6.81
2022-11-29T06:25:07.469Z,6.85
2022-11-29T06:28:01.604Z,6.77
2022-11-29T06:30:40.800Z,6.83
2022-11-29T06:33:18.808Z,6.81
2022-11-29T06:35:59.690Z,6.81
2022-11-29T06:38:32.896Z,6.79
2022-11-29T06:41:06.056Z,6.78
2022-11-29T06:43:36.399Z,6.76
2022-11-29T06:46:13.727Z,6.81
2022-11-29T06:48:50.681Z,6.76
2022-11-29T06:51:28.530Z,6.79
2022-11-29T06:54:05.016Z,6.80
2022-11-29T06:56:41.537Z,6.80
2022-11-29T06:59:34.912Z,6.72
2022-11-29T07:02:14.339Z,6.63
2022-11-29T07:04:58.368Z,6.63
2022-11-29T07:07:28.012Z,6.74
2022-11-29T07:09:59.037Z,6.75
2022-11-29T07:12:28.569Z,6.74
2022-11-29T07:14:58.159Z,6.76
2022-11-29T07:17:34.804Z,6.67
2022-11-29T07:20:10.066Z,6.74
2022-11-29T07:22:58.835Z,6.65
2022-11-29T07:25:38.004Z,6.68
2022-11-29T07:28:19.521Z,6.55
2022-11-29T07:30:54.001Z,6.66
2022-11-29T07:33:31.800Z,6.70
2022-11-29T07:36:10.787Z,6.68
2022-11-29T07:38:54.783Z,6.71
2022-11-29T07:41:31.779Z,6.80
2022-11-29T07:44:09.541Z,6.79
2022-11-29T07:46:37.863Z,6.72
2022-11-29T07:49:09.285Z,6.69
2022-11-29T07:51:37.673Z,6.58
2022-11-29T07:54:06.022Z,6.58
2022-11-29T07:56:34.592Z,6.57
2022-11-29T07:59:02.991Z,6.60
2022-11-29T08:01:32.015Z,6.62
2022-11-29T08:04:00.293Z,6.64
2022-11-29T08:06:28.680Z,6.47
2022-11-29T08:08:58.537Z,6.53
2022-11-29T08:11:27.284Z,6.61
2022-11-29T08:13:57.251Z,6.52
2022-11-29T08:16:25.780Z,6.52
2022-11-29T08:18:54.315Z,6.59
2022-11-29T08:21:22.692Z,6.60
2022-11-29T08:23:51.357Z,6.47
2022-11-29T08:26:20.997Z,6.44
2022-11-29T08:28:51.724Z,6.55
2022-11-29T08:31:20.842Z,6.63
2022-11-29T08:33:49.206Z,6.61
2022-11-29T08:36:19.435Z,6.62
2022-11-29T08:38:47.925Z,6.58
2022-11-29T08:41:17.716Z,6.57
2022-11-29T08:43:46.164Z,6.63
2022-11-29T08:46:18.452Z,6.63
2022-11-29T08:48:47.355Z,6.63
2022-11-29T08:51:15.704Z,6.58
2022-11-29T08:53:45.743Z,6.73
2022-11-29T08:59:04.741Z,6.69
2022-11-29T09:01:33.205Z,6.78
2022-11-29T09:04:07.005Z,6.72
2022-11-29T09:06:39.032Z,6.70
2022-11-29T09:09:07.402Z,6.73
2022-11-29T09:11:36.500Z,6.72
2022-11-29T09:14:07.381Z,6.72
2022-11-29T09:16:37.658Z,6.78
2022-11-29T09:19:06.422Z,6.71
2022-11-29T09:21:36.093Z,6.78
2022-11-29T09:24:06.153Z,6.75
2022-11-29T09:26:37.408Z,6.75
2022-11-29T09:29:06.883Z,6.73
2022-11-29T09:31:35.508Z,6.69
2022-11-29T09:34:04.475Z,6.78
2022-11-29T09:36:33.430Z,6.80
2022-11-29T09:39:02.592Z,6.80
2022-11-29T09:41:48.598Z,6.78
2022-11-29T09:44:25.239Z,6.75
2022-11-29T09:47:04.154Z,6.74
2022-11-29T09:49:55.063Z,6.75
2022-11-29T09:52:33.924Z,6.76
2022-11-29T09:55:12.828Z,6.83
2022-11-29T09:57:43.535Z,6.85
2022-11-29T10:00:17.542Z,6.90
2022-11-29T10:02:50.335Z,6.95
2022-11-29T10:05:24.155Z,6.87
2022-11-29T10:08:00.493Z,6.92
2022-11-29T10:10:37.129Z,6.85
2022-11-29T10:13:18.650Z,6.80
2022-11-29T10:15:52.676Z,6.84
2022-11-29T10:18:26.442Z,6.90
2022-11-29T10:20:59.722Z,6.86
2022-11-29T10:23:33.928Z,6.80
2022-11-29T10:26:07.256Z,6.75
2022-11-29T10:28:37.124Z,6.83
2022-11-29T10:31:18.861Z,6.92
2022-11-29T10:33:47.721Z,6.96
2022-11-29T10:36:21.755Z,6.92
2022-11-29T10:38:52.893Z,6.83
2022-11-29T10:41:25.716Z,6.81
2022-11-29T10:43:57.235Z,6.83
2022-11-29T10:46:30.062Z,6.85
2022-11-29T10:49:03.119Z,6.94
2022-11-29T10:51:33.017Z,6.83
2022-11-29T10:54:20.708Z,6.93
2022-11-29T10:56:49.359Z,6.95
2022-11-29T10:59:22.925Z,6.87
2022-11-29T11:01:52.001Z,6.92
2022-11-29T11:04:28.079Z,6.89
2022-11-29T11:07:00.756Z,7.03
2022-11-29T11:09:33.942Z,7.05
2022-11-29T11:12:05.803Z,7.06
2022-11-29T11:14:37.283Z,7.07
2022-11-29T11:17:20.742Z,7.10
2022-11-29T11:19:57.064Z,7.01
2022-11-29T11:22:26.986Z,7.05
2022-11-29T11:25:00.859Z,7.08
2022-11-29T11:27:31.788Z,7.12
2022-11-29T11:30:01.527Z,7.13
2022-11-29T11:32:30.238Z,7.11
2022-11-29T11:35:00.573Z,7.08
2022-11-29T11:37:30.309Z,7.09
2022-11-29T11:40:00.600Z,7.08
2022-11-29T11:42:39.742Z,7.11
2022-11-29T11:45:25.955Z,7.10
2022-11-29T11:47:57.557Z,7.15
2022-11-29T11:50:31.932Z,7.17
2022-11-29T11:53:04.435Z,7.16
2022-11-29T11:55:36.711Z,7.21
2022-11-29T11:58:17.118Z,7.21
2022-11-29T12:01:04.022Z,7.24
2022-11-29T12:03:47.830Z,7.23
2022-11-29T12:06:31.774Z,7.26
2022-11-29T12:09:04.888Z,7.22
2022-11-29T12:11:41.281Z,7.19
2022-11-29T12:14:18.078Z,7.12
2022-11-29T12:16:50.228Z,7.23
2022-11-29T12:19:26.289Z,7.21
2022-11-29T12:22:02.940Z,7.20
2022-11-29T12:24:37.799Z,7.18
2022-11-29T12:27:09.439Z,7.18
2022-11-29T12:29:37.972Z,7.22
2022-11-29T12:32:21.117Z,7.17
2022-11-29T12:35:07.958Z,7.16
2022-11-29T12:37:43.091Z,7.24
2022-11-29T12:40:20.651Z,7.18
2022-11-29T12:42:56.905Z,7.23
2022-11-29T12:45:36.173Z,7.20
2022-11-29T12:48:15.761Z,7.16
2022-11-29T12:50:58.885Z,7.13
2022-11-29T12:53:44.998Z,7.06
2022-11-29T12:56:18.527Z,7.04
2022-11-29T12:59:00.927Z,6.94
2022-11-29T13:01:41.097Z,7.07
2022-11-29T13:04:21.887Z,7.07
2022-11-29T13:07:01.955Z,7.07
2022-11-29T13:09:54.156Z,7.09
2022-11-29T13:12:27.896Z,7.07
2022-11-29T13:15:01.527Z,7.10
2022-11-29T13:17:39.027Z,7.11
2022-11-29T13:20:23.906Z,7.04
2022-11-29T13:22:55.063Z,7.07
2022-11-29T13:25:28.453Z,7.09
2022-11-29T13:28:01.505Z,7.09
2022-11-29T13:30:30.059Z,7.04
2022-11-29T13:33:07.043Z,7.06
2022-11-29T13:35:42.439Z,7.02
2022-11-29T13:38:22.958Z,7.03
2022-11-29T13:41:00.777Z,7.06
2022-11-29T13:43:37.644Z,7.02
2022-11-29T13:46:17.226Z,7.02
2022-11-29T13:48:50.686Z,7.01
2022-11-29T13:51:25.467Z,7.03
2022-11-29T13:53:53.933Z,7.00
2022-11-29T13:56:29.227Z,7.00
2022-11-29T13:59:00.653Z,7.00
2022-11-29T14:01:29.128Z,7.01
2022-11-29T14:04:04.297Z,7.02
2022-11-29T14:06:35.004Z,6.95
2022-11-29T14:09:26.059Z,6.91
2022-11-29T14:12:02.759Z,6.96
2022-11-29T14:14:37.181Z,6.95
2022-11-29T14:17:26.215Z,6.94
2022-11-29T14:20:32.742Z,6.87
2022-11-29T14:23:16.472Z,6.78
2022-11-29T14:26:29.191Z,6.86
2022-11-29T14:28:58.981Z,6.76
2022-11-29T14:31:55.182Z,6.84
2022-11-29T14:34:46.475Z,6.76
2022-11-29T14:37:50.826Z,6.72
2022-11-29T14:40:27.171Z,6.80
2022-11-29T14:42:55.771Z,6.85
2022-11-29T14:45:30.493Z,6.67
2022-11-29T14:48:01.148Z,6.77
2022-11-29T14:50:32.602Z,6.80
2022-11-29T14:53:02.382Z,6.84
2022-11-29T14:55:34.666Z,6.84
2022-11-29T14:58:20.504Z,6.84
2022-11-29T15:01:10.972Z,6.88
2022-11-29T15:03:50.551Z,6.89
2022-11-29T15:06:25.176Z,6.81
2022-11-29T15:09:04.233Z,6.80
2022-11-29T15:11:48.878Z,6.87
2022-11-29T15:14:26.437Z,6.86
2022-11-29T15:17:22.525Z,6.84
2022-11-29T15:20:07.302Z,6.75
2022-11-29T15:22:45.917Z,6.82
2022-11-29T15:25:16.442Z,6.82
2022-11-29T15:27:52.863Z,6.83
2022-11-29T15:30:31.482Z,6.85
2022-11-29T15:33:01.546Z,6.87
2022-11-29T15:35:31.177Z,6.89
2022-11-29T15:37:59.723Z,6.86
2022-11-29T15:40:34.658Z,6.81
2022-11-29T15:43:16.557Z,6.82
2022-11-29T15:45:48.519Z,6.78
2022-11-29T15:48:20.275Z,6.78
2022-11-29T15:51:01.514Z,6.82
2022-11-29T15:53:35.136Z,6.74
2022-11-29T15:56:11.684Z,6.78
2022-11-29T15:58:40.479Z,6.78
2022-11-29T16:01:11.402Z,6.77
2022-11-29T16:03:45.582Z,6.77
2022-11-29T16:06:24.078Z,6.74
2022-11-29T16:08:53.971Z,6.73
2022-11-29T16:11:27.153Z,6.71
2022-11-29T16:14:16.201Z,6.69
2022-11-29T16:16:46.667Z,6.70
2022-11-29T16:19:26.065Z,6.72
2022-11-29T16:22:07.234Z,6.71
2022-11-29T16:24:54.740Z,6.78
2022-11-29T16:27:24.529Z,6.78
2022-11-29T16:29:55.056Z,6.72
2022-11-29T16:32:28.938Z,6.69
2022-11-29T16:35:05.528Z,6.71
2022-11-29T16:37:39.230Z,6.65
2022-11-29T16:40:21.145Z,6.73
2022-11-29T16:43:07.892Z,6.74
2022-11-29T16:45:38.267Z,6.71
2022-11-29T16:48:29.434Z,6.74
2022-11-29T16:51:23.114Z,6.75
2022-11-29T16:53:53.042Z,6.72
2022-11-29T16:56:23.989Z,6.72
2022-11-29T16:59:25.498Z,6.71
2022-11-29T17:01:44.084Z,6.68
2022-11-29T17:04:12.697Z,6.67
2022-11-29T17:06:54.585Z,6.67
2022-11-29T17:09:25.830Z,6.73
2022-11-29T17:11:55.486Z,6.73
2022-11-29T17:14:23.791Z,6.73
2022-11-29T17:16:52.413Z,6.69
2022-11-29T17:19:23.007Z,6.66
2022-11-29T17:21:52.258Z,6.63
2022-11-29T17:24:22.315Z,6.67
2022-11-29T17:26:50.779Z,6.64
2022-11-29T17:29:19.545Z,6.64
2022-11-29T17:31:49.735Z,6.67
2022-11-29T17:34:18.569Z,6.63
2022-11-29T17:36:48.063Z,6.58
2022-11-29T17:39:19.378Z,6.60
2022-11-29T17:41:48.013Z,6.64
2022-11-29T17:44:16.401Z,6.62
2022-11-29T17:46:44.902Z,6.58
2022-11-29T17:49:13.268Z,6.59
2022-11-29T17:51:56.969Z,6.61
2022-11-29T17:54:25.362Z,6.64
2022-11-29T17:56:54.656Z,6.59
2022-11-29T17:59:23.065Z,6.66
2022-11-29T18:01:51.805Z,6.67
2022-11-29T18:04:20.634Z,6.71
2022-11-29T18:06:49.340Z,6.72
2022-11-29T18:09:19.116Z,6.72
2022-11-29T18:11:49.887Z,6.72
2022-11-29T18:14:22.282Z,6.71
2022-11-29T18:16:51.256Z,6.68
2022-11-29T18:19:22.131Z,6.71
2022-11-29T18:21:53.544Z,6.71
2022-11-29T18:24:23.012Z,6.73
2022-11-29T18:26:51.677Z,6.75
2022-11-29T18:29:20.878Z,6.75
2022-11-29T18:31:50.078Z,6.77
2022-11-29T18:34:19.048Z,6.78
2022-11-29T18:36:49.118Z,6.79
2022-11-29T18:39:20.037Z,6.74
2022-11-29T18:41:49.706Z,6.72
2022-11-29T18:44:21.356Z,6.71
2022-11-29T18:46:50.225Z,6.73
2022-11-29T18:49:19.857Z,6.75
2022-11-29T18:51:49.615Z,6.75
2022-11-29T18:54:18.959Z,6.78
2022-11-29T18:56:50.347Z,6.78
2022-11-29T18:59:19.208Z,6.77
2022-11-29T19:01:48.264Z,6.78
2022-11-29T19:04:19.157Z,6.79
2022-11-29T19:06:48.938Z,6.77
2022-11-29T19:09:20.228Z,6.75
2022-11-29T19:11:51.123Z,6.78
2022-11-29T19:14:19.803Z,6.79
2022-11-29T19:16:49.147Z,6.80
2022-11-29T19:19:18.432Z,6.75
2022-11-29T19:21:47.016Z,6.74
2022-11-29T19:24:17.328Z,6.75
2022-11-29T19:26:49.101Z,6.75
2022-11-29T19:29:18.210Z,6.77
2022-11-29T19:31:46.976Z,6.78
2022-11-29T19:34:15.496Z,6.75
2022-11-29T19:36:45.328Z,6.79
2022-11-29T19:39:16.006Z,6.75
2022-11-29T19:41:46.189Z,6.67
2022-11-29T19:44:15.028Z,6.77
2022-11-29T19:46:45.275Z,6.79
2022-11-29T19:49:13.961Z,6.73
2022-11-29T19:51:42.504Z,6.74
2022-11-29T19:54:11.595Z,6.71
2022-11-29T19:56:40.039Z,6.71
2022-11-29T19:59:08.867Z,6.75
2022-11-29T20:01:41.230Z,6.75
2022-11-29T20:04:11.031Z,6.77
2022-11-29T20:06:39.995Z,6.78
2022-11-29T20:09:08.672Z,6.74
2022-11-29T20:11:37.543Z,6.76
2022-11-29T20:14:07.190Z,6.77
2022-11-29T20:16:37.412Z,6.58
2022-11-29T20:19:09.948Z,6.63
2022-11-29T20:21:41.885Z,6.75
2022-11-29T20:24:12.291Z,6.77
2022-11-29T20:26:45.915Z,6.75
2022-11-29T20:29:15.395Z,6.80
2022-11-29T20:31:50.490Z,6.73
2022-11-29T20:34:20.723Z,6.64
2022-11-29T20:37:20.557Z,6.76
2022-11-29T20:39:54.288Z,6.81
2022-11-29T20:42:40.787Z,6.81
2022-11-29T20:45:12.055Z,6.79
2022-11-29T20:47:49.270Z,6.76
2022-11-29T20:50:23.614Z,6.74
2022-11-29T20:53:17.059Z,6.77
2022-11-29T20:55:48.368Z,6.71
2022-11-29T20:58:17.715Z,6.80
2022-11-29T21:00:46.597Z,6.80
2022-11-29T21:03:15.605Z,6.78
2022-11-29T21:05:44.710Z,6.77
2022-11-29T21:08:13.967Z,6.70
2022-11-29T21:10:42.650Z,6.78
2022-11-29T21:13:13.139Z,6.78
2022-11-29T21:15:43.541Z,6.75
2022-11-29T21:18:21.835Z,6.78
2022-11-29T21:21:02.686Z,6.77
2022-11-29T21:23:44.855Z,6.79
2022-11-29T21:26:20.006Z,6.79
2022-11-29T21:28:56.644Z,6.77
2022-11-29T21:31:26.246Z,6.74
2022-11-29T21:33:55.494Z,6.76
2022-11-29T21:36:23.955Z,6.76
2022-11-29T21:38:55.050Z,6.80
2022-11-29T21:41:23.905Z,6.82
2022-11-29T21:44:08.559Z,6.80
2022-11-29T21:46:37.215Z,6.79
2022-11-29T21:49:05.828Z,6.81
2022-11-29T21:51:34.259Z,6.78
2022-11-29T21:54:02.904Z,6.80
2022-11-29T21:56:31.563Z,6.80
2022-11-29T21:59:00.101Z,6.78
2022-11-29T22:01:28.808Z,6.78
2022-11-29T22:03:57.366Z,6.75
2022-11-29T22:06:28.611Z,6.75
2022-11-29T22:08:57.045Z,6.75
2022-11-29T22:11:33.363Z,6.76
2022-11-29T22:14:13.159Z,6.67
2022-11-29T22:16:45.830Z,6.73
2022-11-29T22:19:16.186Z,6.75
2022-11-29T22:21:46.645Z,6.72
2022-11-29T22:24:16.346Z,6.76
2022-11-29T22:26:45.469Z,6.79
2022-11-29T22:29:15.360Z,6.75
2022-11-29T22:31:44.831Z,6.78
2022-11-29T22:34:13.675Z,6.74
2022-11-29T22:36:43.299Z,6.74
2022-11-29T22:39:12.056Z,6.75
2022-11-29T22:41:41.249Z,6.72
2022-11-29T22:44:09.804Z,6.73
2022-11-29T22:46:40.362Z,6.74
2022-11-29T22:49:08.916Z,6.68
2022-11-29T22:51:38.113Z,6.71
2022-11-29T22:54:08.005Z,6.59
2022-11-29T22:56:38.662Z,6.66
2022-11-29T22:59:07.580Z,6.68
2022-11-29T23:01:37.792Z,6.70
2022-11-29T23:04:08.072Z,6.68
2022-11-29T23:06:38.058Z,6.68
2022-11-29T23:09:10.075Z,6.64
2022-11-29T23:11:38.880Z,6.65
2022-11-29T23:14:07.215Z,6.67
2022-11-29T23:16:36.058Z,6.68
2022-11-29T23:19:04.518Z,6.72
2022-11-29T23:21:35.485Z,6.68
2022-11-29T23:24:04.857Z,6.67
2022-11-29T23:26:38.347Z,6.68
2022-11-29T23:29:09.348Z,6.64
2022-11-29T23:31:38.770Z,6.62
2022-11-29T23:34:07.673Z,6.60
2022-11-29T23:36:36.066Z,6.58
2022-11-29T23:39:06.093Z,6.60
2022-11-29T23:41:35.531Z,6.64
2022-11-29T23:44:04.776Z,6.55
2022-11-29T23:46:34.548Z,6.57
2022-11-29T23:49:04.529Z,6.58
2022-11-29T23:51:33.197Z,6.61
2022-11-29T23:54:01.675Z,6.55
2022-11-29T23:56:34.655Z,6.53
2022-11-29T23:59:03.498Z,6.57
